sensor_id;sensor_type;location;lat;lon;timestamp;temperature;humidity
12434;DHT22;6281;49.038;8.372;2022-12-18T00:02:27;-6.50;99.90
12434;DHT22;6281;49.038;8.372;2022-12-18T00:04:55;-6.50;99.90
12434;DHT22;6281;49.038;8.372;2022-12-18T00:07:23;-6.40;99.90
12434;DHT22;6281;49.038;8.372;2022-12-18T00:09:50;-6.40;99.90
12434;DHT22;6281;49.038;8.372;2022-12-18T00:12:20;-6.40;99.90
12434;DHT22;6281;49.038;8.372;2022-12-18T00:14:51;-6.40;99.90
12434;DHT22;6281;49.038;8.372;2022-12-18T00:17:19;-6.50;99.90
12434;DHT22;6281;49.038;8.372;2022-12-18T00:19:46;-6.40;99.90
12434;DHT22;6281;49.038;8.372;2022-12-18T00:22:15;-6.50;99.90
12434;DHT22;6281;49.038;8.372;2022-12-18T00:24:42;-6.40;99.90
12434;DHT22;6281;49.038;8.372;2022-12-18T00:27:09;-6.50;99.90
12434;DHT22;6281;49.038;8.372;2022-12-18T00:29:36;-6.50;99.90
12434;DHT22;6281;49.038;8.372;2022-12-18T00:32:03;-6.40;99.90
12434;DHT22;6281;49.038;8.372;2022-12-18T00:34:41;-6.30;99.90
12434;DHT22;6281;49.038;8.372;2022-12-18T00:37:26;-6.20;99.90
12434;DHT22;6281;49.038;8.372;2022-12-18T00:39:54;-6.40;99.90
12434;DHT22;6281;49.038;8.372;2022-12-18T00:42:21;-6.20;99.90
12434;DHT22;6281;49.038;8.372;2022-12-18T00:45:05;-6.20;99.90
12434;DHT22;6281;49.038;8.372;2022-12-18T00:47:32;-6.20;99.90
12434;DHT22;6281;49.038;8.372;2022-12-18T00:50:00;-6.10;99.90
12434;DHT22;6281;49.038;8.372;2022-12-18T00:52:28;-6.00;99.90
12434;DHT22;6281;49.038;8.372;2022-12-18T00:54:55;-6.10;99.90
12434;DHT22;6281;49.038;8.372;2022-12-18T00:57:25;-6.10;99.90
12434;DHT22;6281;49.038;8.372;2022-12-18T00:59:52;-6.00;99.90
12434;DHT22;6281;49.038;8.372;2022-12-18T01:02:19;-6.00;99.90
12434;DHT22;6281;49.038;8.372;2022-12-18T01:04:47;-6.10;99.90
12434;DHT22;6281;49.038;8.372;2022-12-18T01:07:14;-6.10;99.90
12434;DHT22;6281;49.038;8.372;2022-12-18T01:09:46;-6.00;99.90
12434;DHT22;6281;49.038;8.372;2022-12-18T01:12:13;-6.10;99.90
12434;DHT22;6281;49.038;8.372;2022-12-18T01:14:40;-6.20;99.90
12434;DHT22;6281;49.038;8.372;2022-12-18T01:17:07;-6.10;99.90
12434;DHT22;6281;49.038;8.372;2022-12-18T01:19:34;-6.20;99.90
12434;DHT22;6281;49.038;8.372;2022-12-18T01:22:01;-6.30;99.90
12434;DHT22;6281;49.038;8.372;2022-12-18T01:24:31;-6.10;99.90
12434;DHT22;6281;49.038;8.372;2022-12-18T01:26:59;-6.00;99.90
12434;DHT22;6281;49.038;8.372;2022-12-18T01:29:26;-6.00;99.90
12434;DHT22;6281;49.038;8.372;2022-12-18T01:31:55;-6.10;99.90
12434;DHT22;6281;49.038;8.372;2022-12-18T01:34:22;-6.10;99.90
12434;DHT22;6281;49.038;8.372;2022-12-18T01:36:49;-6.10;99.90
12434;DHT22;6281;49.038;8.372;2022-12-18T01:39:17;-6.00;99.90
12434;DHT22;6281;49.038;8.372;2022-12-18T01:41:46;-6.00;99.90
12434;DHT22;6281;49.038;8.372;2022-12-18T01:45:08;-6.20;99.90
12434;DHT22;6281;49.038;8.372;2022-12-18T01:47:50;-6.10;99.90
12434;DHT22;6281;49.038;8.372;2022-12-18T01:50:19;-6.10;99.90
12434;DHT22;6281;49.038;8.372;2022-12-18T01:52:49;-6.20;99.90
12434;DHT22;6281;49.038;8.372;2022-12-18T01:55:19;-6.20;99.90
12434;DHT22;6281;49.038;8.372;2022-12-18T01:57:47;-6.00;99.90
12434;DHT22;6281;49.038;8.372;2022-12-18T02:00:18;-6.00;99.90
12434;DHT22;6281;49.038;8.372;2022-12-18T02:02:46;-6.20;99.90
12434;DHT22;6281;49.038;8.372;2022-12-18T02:05:16;-6.10;99.90
12434;DHT22;6281;49.038;8.372;2022-12-18T02:07:51;-6.20;99.90
12434;DHT22;6281;49.038;8.372;2022-12-18T02:10:27;-6.30;99.90
12434;DHT22;6281;49.038;8.372;2022-12-18T02:13:02;-6.30;99.90
12434;DHT22;6281;49.038;8.372;2022-12-18T02:15:38;-6.20;99.90
12434;DHT22;6281;49.038;8.372;2022-12-18T02:18:08;-6.10;99.90
12434;DHT22;6281;49.038;8.372;2022-12-18T02:20:43;-6.30;99.90
12434;DHT22;6281;49.038;8.372;2022-12-18T02:23:19;-6.30;99.90
12434;DHT22;6281;49.038;8.372;2022-12-18T02:26:09;-6.30;99.90
12434;DHT22;6281;49.038;8.372;2022-12-18T02:28:42;-6.20;99.90
12434;DHT22;6281;49.038;8.372;2022-12-18T02:31:13;-6.30;99.90
12434;DHT22;6281;49.038;8.372;2022-12-18T02:33:42;-6.30;99.90
12434;DHT22;6281;49.038;8.372;2022-12-18T02:36:11;-6.20;99.90
12434;DHT22;6281;49.038;8.372;2022-12-18T02:38:41;-6.20;99.90
12434;DHT22;6281;49.038;8.372;2022-12-18T02:41:10;-6.40;99.90
12434;DHT22;6281;49.038;8.372;2022-12-18T02:43:38;-6.30;99.90
12434;DHT22;6281;49.038;8.372;2022-12-18T02:46:24;-6.30;99.90
12434;DHT22;6281;49.038;8.372;2022-12-18T02:48:57;-6.30;99.90
12434;DHT22;6281;49.038;8.372;2022-12-18T02:51:30;-6.30;99.90
12434;DHT22;6281;49.038;8.372;2022-12-18T02:54:05;-6.30;99.90
12434;DHT22;6281;49.038;8.372;2022-12-18T02:56:37;-6.40;99.90
12434;DHT22;6281;49.038;8.372;2022-12-18T02:59:09;-6.40;99.90
12434;DHT22;6281;49.038;8.372;2022-12-18T03:01:42;-6.40;99.90
12434;DHT22;6281;49.038;8.372;2022-12-18T03:04:15;-6.40;99.90
12434;DHT22;6281;49.038;8.372;2022-12-18T03:06:46;-6.40;99.90
12434;DHT22;6281;49.038;8.372;2022-12-18T03:09:18;-6.30;99.90
12434;DHT22;6281;49.038;8.372;2022-12-18T03:11:52;-6.30;99.90
12434;DHT22;6281;49.038;8.372;2022-12-18T03:14:40;-6.20;99.90
12434;DHT22;6281;49.038;8.372;2022-12-18T03:17:11;-6.20;99.90
12434;DHT22;6281;49.038;8.372;2022-12-18T03:19:41;-6.30;99.90
12434;DHT22;6281;49.038;8.372;2022-12-18T03:22:09;-6.30;99.90
12434;DHT22;6281;49.038;8.372;2022-12-18T03:24:37;-6.40;99.90
12434;DHT22;6281;49.038;8.372;2022-12-18T03:27:08;-6.30;99.90
12434;DHT22;6281;49.038;8.372;2022-12-18T03:29:38;-6.30;99.90
12434;DHT22;6281;49.038;8.372;2022-12-18T03:32:27;-6.50;99.90
12434;DHT22;6281;49.038;8.372;2022-12-18T03:34:58;-6.60;99.90
12434;DHT22;6281;49.038;8.372;2022-12-18T03:37:26;-6.50;99.90
12434;DHT22;6281;49.038;8.372;2022-12-18T03:39:52;-6.50;99.90
12434;DHT22;6281;49.038;8.372;2022-12-18T03:42:25;-6.50;99.90
12434;DHT22;6281;49.038;8.372;2022-12-18T03:44:58;-6.50;99.90
12434;DHT22;6281;49.038;8.372;2022-12-18T03:47:29;-6.50;99.90
12434;DHT22;6281;49.038;8.372;2022-12-18T03:50:04;-6.50;99.90
12434;DHT22;6281;49.038;8.372;2022-12-18T03:52:38;-6.60;99.90
12434;DHT22;6281;49.038;8.372;2022-12-18T03:55:07;-6.60;99.90
12434;DHT22;6281;49.038;8.372;2022-12-18T03:57:35;-6.80;99.90
12434;DHT22;6281;49.038;8.372;2022-12-18T04:00:07;-6.90;99.90
12434;DHT22;6281;49.038;8.372;2022-12-18T04:02:37;-6.80;99.90
12434;DHT22;6281;49.038;8.372;2022-12-18T04:05:07;-6.80;99.90
12434;DHT22;6281;49.038;8.372;2022-12-18T04:07:36;-6.90;99.90
12434;DHT22;6281;49.038;8.372;2022-12-18T04:10:07;-6.90;99.90
12434;DHT22;6281;49.038;8.372;2022-12-18T04:12:34;-6.80;99.90
12434;DHT22;6281;49.038;8.372;2022-12-18T04:15:04;-6.70;99.90
12434;DHT22;6281;49.038;8.372;2022-12-18T04:17:31;-6.80;99.90
12434;DHT22;6281;49.038;8.372;2022-12-18T04:19:59;-6.80;99.90
12434;DHT22;6281;49.038;8.372;2022-12-18T04:22:26;-6.80;99.90
12434;DHT22;6281;49.038;8.372;2022-12-18T04:24:53;-6.70;99.90
12434;DHT22;6281;49.038;8.372;2022-12-18T04:27:20;-6.80;99.90
12434;DHT22;6281;49.038;8.372;2022-12-18T04:29:47;-6.90;99.90
12434;DHT22;6281;49.038;8.372;2022-12-18T04:32:14;-6.80;99.90
12434;DHT22;6281;49.038;8.372;2022-12-18T04:34:41;-6.80;99.90
12434;DHT22;6281;49.038;8.372;2022-12-18T04:37:09;-6.90;99.90
12434;DHT22;6281;49.038;8.372;2022-12-18T04:39:36;-6.80;99.90
12434;DHT22;6281;49.038;8.372;2022-12-18T04:42:03;-6.80;99.90
12434;DHT22;6281;49.038;8.372;2022-12-18T04:44:30;-6.70;99.90
12434;DHT22;6281;49.038;8.372;2022-12-18T04:46:57;-6.90;99.90
12434;DHT22;6281;49.038;8.372;2022-12-18T04:49:24;-6.80;99.90
12434;DHT22;6281;49.038;8.372;2022-12-18T04:51:51;-6.70;99.90
12434;DHT22;6281;49.038;8.372;2022-12-18T04:54:20;-6.70;99.90
12434;DHT22;6281;49.038;8.372;2022-12-18T04:56:46;-6.70;99.90
12434;DHT22;6281;49.038;8.372;2022-12-18T04:59:13;-6.80;99.90
12434;DHT22;6281;49.038;8.372;2022-12-18T05:01:40;-6.90;99.90
12434;DHT22;6281;49.038;8.372;2022-12-18T05:04:07;-6.90;99.90
12434;DHT22;6281;49.038;8.372;2022-12-18T05:06:34;-6.90;99.90
12434;DHT22;6281;49.038;8.372;2022-12-18T05:09:01;-7.00;99.90
12434;DHT22;6281;49.038;8.372;2022-12-18T05:11:29;-6.90;99.90
12434;DHT22;6281;49.038;8.372;2022-12-18T05:13:56;-6.80;99.90
12434;DHT22;6281;49.038;8.372;2022-12-18T05:16:23;-6.80;99.90
12434;DHT22;6281;49.038;8.372;2022-12-18T05:18:50;-7.30;99.90
12434;DHT22;6281;49.038;8.372;2022-12-18T05:21:17;-7.30;99.90
12434;DHT22;6281;49.038;8.372;2022-12-18T05:23:44;-7.20;99.90
12434;DHT22;6281;49.038;8.372;2022-12-18T05:26:16;-7.00;99.90
12434;DHT22;6281;49.038;8.372;2022-12-18T05:28:45;-6.80;99.90
12434;DHT22;6281;49.038;8.372;2022-12-18T05:31:11;-6.70;99.90
12434;DHT22;6281;49.038;8.372;2022-12-18T05:33:38;-6.80;99.90
12434;DHT22;6281;49.038;8.372;2022-12-18T05:36:07;-6.80;99.90
12434;DHT22;6281;49.038;8.372;2022-12-18T05:38:35;-7.00;99.90
12434;DHT22;6281;49.038;8.372;2022-12-18T05:41:02;-7.00;99.90
12434;DHT22;6281;49.038;8.372;2022-12-18T05:43:30;-7.00;99.90
12434;DHT22;6281;49.038;8.372;2022-12-18T05:46:02;-7.10;99.90
12434;DHT22;6281;49.038;8.372;2022-12-18T05:48:29;-7.00;99.90
12434;DHT22;6281;49.038;8.372;2022-12-18T05:51:03;-7.10;99.90
12434;DHT22;6281;49.038;8.372;2022-12-18T05:53:30;-7.00;99.90
12434;DHT22;6281;49.038;8.372;2022-12-18T05:56:00;-7.10;99.90
12434;DHT22;6281;49.038;8.372;2022-12-18T05:58:27;-7.20;99.90
12434;DHT22;6281;49.038;8.372;2022-12-18T06:00:54;-7.10;99.90
12434;DHT22;6281;49.038;8.372;2022-12-18T06:03:22;-6.90;99.90
12434;DHT22;6281;49.038;8.372;2022-12-18T06:05:49;-6.80;99.90
12434;DHT22;6281;49.038;8.372;2022-12-18T06:08:15;-6.90;99.90
12434;DHT22;6281;49.038;8.372;2022-12-18T06:10:48;-6.80;99.90
12434;DHT22;6281;49.038;8.372;2022-12-18T06:13:16;-7.30;99.90
12434;DHT22;6281;49.038;8.372;2022-12-18T06:15:43;-7.60;99.90
12434;DHT22;6281;49.038;8.372;2022-12-18T06:18:10;-7.40;99.90
12434;DHT22;6281;49.038;8.372;2022-12-18T06:20:38;-7.20;99.90
12434;DHT22;6281;49.038;8.372;2022-12-18T06:23:07;-6.70;99.90
12434;DHT22;6281;49.038;8.372;2022-12-18T06:25:39;-6.70;99.90
12434;DHT22;6281;49.038;8.372;2022-12-18T06:28:06;-6.30;99.90
12434;DHT22;6281;49.038;8.372;2022-12-18T06:30:33;-6.30;99.90
12434;DHT22;6281;49.038;8.372;2022-12-18T06:33:00;-6.70;99.90
12434;DHT22;6281;49.038;8.372;2022-12-18T06:38:40;-6.70;99.90
12434;DHT22;6281;49.038;8.372;2022-12-18T06:41:07;-6.00;99.90
12434;DHT22;6281;49.038;8.372;2022-12-18T06:43:34;-6.20;99.90
12434;DHT22;6281;49.038;8.372;2022-12-18T06:46:05;-6.80;99.90
12434;DHT22;6281;49.038;8.372;2022-12-18T06:48:33;-6.70;99.90
12434;DHT22;6281;49.038;8.372;2022-12-18T06:51:00;-6.30;99.90
12434;DHT22;6281;49.038;8.372;2022-12-18T06:53:27;-6.10;99.90
12434;DHT22;6281;49.038;8.372;2022-12-18T06:56:01;-6.20;99.90
12434;DHT22;6281;49.038;8.372;2022-12-18T06:58:28;-6.20;99.90
12434;DHT22;6281;49.038;8.372;2022-12-18T07:00:59;-6.50;99.90
12434;DHT22;6281;49.038;8.372;2022-12-18T07:03:27;-6.40;99.90
12434;DHT22;6281;49.038;8.372;2022-12-18T07:05:54;-6.50;99.90
12434;DHT22;6281;49.038;8.372;2022-12-18T07:08:21;-6.80;99.90
12434;DHT22;6281;49.038;8.372;2022-12-18T07:10:48;-6.40;99.90
12434;DHT22;6281;49.038;8.372;2022-12-18T07:13:17;-5.90;99.90
12434;DHT22;6281;49.038;8.372;2022-12-18T07:15:44;-6.00;99.90
12434;DHT22;6281;49.038;8.372;2022-12-18T07:18:11;-5.60;99.90
12434;DHT22;6281;49.038;8.372;2022-12-18T07:20:37;-5.90;99.90
12434;DHT22;6281;49.038;8.372;2022-12-18T07:23:05;-6.10;99.90
12434;DHT22;6281;49.038;8.372;2022-12-18T07:25:33;-6.40;99.90
12434;DHT22;6281;49.038;8.372;2022-12-18T07:28:00;-5.70;99.90
12434;DHT22;6281;49.038;8.372;2022-12-18T07:30:29;-5.50;99.90
12434;DHT22;6281;49.038;8.372;2022-12-18T07:32:56;-5.50;99.90
12434;DHT22;6281;49.038;8.372;2022-12-18T07:35:23;-5.40;99.90
12434;DHT22;6281;49.038;8.372;2022-12-18T07:37:49;-5.20;99.90
12434;DHT22;6281;49.038;8.372;2022-12-18T07:40:16;-5.10;99.90
12434;DHT22;6281;49.038;8.372;2022-12-18T07:42:43;-5.20;99.90
12434;DHT22;6281;49.038;8.372;2022-12-18T07:45:10;-5.20;99.90
12434;DHT22;6281;49.038;8.372;2022-12-18T07:47:38;-5.50;99.90
12434;DHT22;6281;49.038;8.372;2022-12-18T07:50:07;-5.50;99.90
12434;DHT22;6281;49.038;8.372;2022-12-18T07:52:34;-5.70;99.90
12434;DHT22;6281;49.038;8.372;2022-12-18T07:55:01;-5.30;99.90
12434;DHT22;6281;49.038;8.372;2022-12-18T07:57:28;-5.10;99.90
12434;DHT22;6281;49.038;8.372;2022-12-18T07:59:55;-5.00;99.90
12434;DHT22;6281;49.038;8.372;2022-12-18T08:02:22;-5.00;99.90
12434;DHT22;6281;49.038;8.372;2022-12-18T08:04:50;-5.10;99.90
12434;DHT22;6281;49.038;8.372;2022-12-18T08:07:17;-5.30;99.90
12434;DHT22;6281;49.038;8.372;2022-12-18T08:09:44;-5.70;99.90
12434;DHT22;6281;49.038;8.372;2022-12-18T08:12:11;-5.40;99.90
12434;DHT22;6281;49.038;8.372;2022-12-18T08:14:37;-5.30;99.90
12434;DHT22;6281;49.038;8.372;2022-12-18T08:17:05;-5.30;99.90
12434;DHT22;6281;49.038;8.372;2022-12-18T08:19:31;-5.10;99.90
12434;DHT22;6281;49.038;8.372;2022-12-18T08:22:00;-5.00;99.90
12434;DHT22;6281;49.038;8.372;2022-12-18T08:24:27;-5.20;99.90
12434;DHT22;6281;49.038;8.372;2022-12-18T08:26:54;-5.00;99.90
12434;DHT22;6281;49.038;8.372;2022-12-18T08:29:22;-5.50;99.90
12434;DHT22;6281;49.038;8.372;2022-12-18T08:31:49;-5.20;99.90
12434;DHT22;6281;49.038;8.372;2022-12-18T08:34:16;-5.00;99.90
12434;DHT22;6281;49.038;8.372;2022-12-18T08:36:43;-5.20;99.90
12434;DHT22;6281;49.038;8.372;2022-12-18T08:39:11;-5.30;99.90
12434;DHT22;6281;49.038;8.372;2022-12-18T08:41:38;-5.10;99.90
12434;DHT22;6281;49.038;8.372;2022-12-18T08:44:07;-4.80;99.90
12434;DHT22;6281;49.038;8.372;2022-12-18T08:46:51;-5.00;99.90
12434;DHT22;6281;49.038;8.372;2022-12-18T08:49:18;-4.80;99.90
12434;DHT22;6281;49.038;8.372;2022-12-18T08:51:45;-4.80;99.90
12434;DHT22;6281;49.038;8.372;2022-12-18T08:54:13;-4.80;99.90
12434;DHT22;6281;49.038;8.372;2022-12-18T08:56:40;-4.70;99.90
12434;DHT22;6281;49.038;8.372;2022-12-18T08:59:08;-4.70;99.90
12434;DHT22;6281;49.038;8.372;2022-12-18T09:01:35;-4.60;99.90
12434;DHT22;6281;49.038;8.372;2022-12-18T09:04:02;-4.70;99.90
12434;DHT22;6281;49.038;8.372;2022-12-18T09:06:29;-4.50;99.90
12434;DHT22;6281;49.038;8.372;2022-12-18T09:08:57;-4.50;99.90
12434;DHT22;6281;49.038;8.372;2022-12-18T09:11:27;-4.50;99.90
12434;DHT22;6281;49.038;8.372;2022-12-18T09:13:55;-4.50;99.90
12434;DHT22;6281;49.038;8.372;2022-12-18T09:16:23;-4.80;99.90
12434;DHT22;6281;49.038;8.372;2022-12-18T09:18:50;-4.80;99.90
12434;DHT22;6281;49.038;8.372;2022-12-18T09:21:20;-4.70;99.90
12434;DHT22;6281;49.038;8.372;2022-12-18T09:23:49;-4.50;99.90
12434;DHT22;6281;49.038;8.372;2022-12-18T09:26:16;-4.80;99.90
12434;DHT22;6281;49.038;8.372;2022-12-18T09:28:45;-4.50;99.90
12434;DHT22;6281;49.038;8.372;2022-12-18T09:31:12;-4.50;99.90
12434;DHT22;6281;49.038;8.372;2022-12-18T09:33:40;-5.00;99.90
12434;DHT22;6281;49.038;8.372;2022-12-18T09:36:09;-4.70;99.90
12434;DHT22;6281;49.038;8.372;2022-12-18T09:38:36;-5.00;99.90
12434;DHT22;6281;49.038;8.372;2022-12-18T09:41:05;-4.50;99.90
12434;DHT22;6281;49.038;8.372;2022-12-18T09:43:43;-4.70;99.90
12434;DHT22;6281;49.038;8.372;2022-12-18T09:46:17;-4.60;99.90
12434;DHT22;6281;49.038;8.372;2022-12-18T09:48:49;-4.40;99.90
12434;DHT22;6281;49.038;8.372;2022-12-18T09:51:18;-4.40;99.90
12434;DHT22;6281;49.038;8.372;2022-12-18T09:53:51;-4.20;99.90
12434;DHT22;6281;49.038;8.372;2022-12-18T09:56:20;-4.30;99.90
12434;DHT22;6281;49.038;8.372;2022-12-18T09:58:54;-4.20;99.90
12434;DHT22;6281;49.038;8.372;2022-12-18T10:01:24;-4.00;99.90
12434;DHT22;6281;49.038;8.372;2022-12-18T10:03:52;-4.00;99.90
12434;DHT22;6281;49.038;8.372;2022-12-18T10:06:22;-4.10;99.90
12434;DHT22;6281;49.038;8.372;2022-12-18T10:08:56;-4.10;99.90
12434;DHT22;6281;49.038;8.372;2022-12-18T10:11:32;-3.90;99.90
12434;DHT22;6281;49.038;8.372;2022-12-18T10:14:05;-4.00;99.90
12434;DHT22;6281;49.038;8.372;2022-12-18T10:16:41;-3.80;99.90
12434;DHT22;6281;49.038;8.372;2022-12-18T10:19:20;-4.00;99.90
12434;DHT22;6281;49.038;8.372;2022-12-18T10:21:56;-3.90;99.90
12434;DHT22;6281;49.038;8.372;2022-12-18T10:24:33;-3.90;99.90
12434;DHT22;6281;49.038;8.372;2022-12-18T10:27:12;-4.00;99.90
12434;DHT22;6281;49.038;8.372;2022-12-18T10:29:41;-3.80;99.90
12434;DHT22;6281;49.038;8.372;2022-12-18T10:32:14;-3.60;99.90
12434;DHT22;6281;49.038;8.372;2022-12-18T10:34:46;-3.70;99.90
12434;DHT22;6281;49.038;8.372;2022-12-18T10:37:16;-3.50;99.90
12434;DHT22;6281;49.038;8.372;2022-12-18T10:39:44;-3.40;99.90
12434;DHT22;6281;49.038;8.372;2022-12-18T10:42:17;-3.40;99.90
12434;DHT22;6281;49.038;8.372;2022-12-18T10:44:44;-3.10;99.90
12434;DHT22;6281;49.038;8.372;2022-12-18T10:47:14;-3.40;99.90
12434;DHT22;6281;49.038;8.372;2022-12-18T10:49:49;-3.10;99.90
12434;DHT22;6281;49.038;8.372;2022-12-18T10:52:19;-3.20;99.90
12434;DHT22;6281;49.038;8.372;2022-12-18T10:54:48;-3.40;99.90
12434;DHT22;6281;49.038;8.372;2022-12-18T10:57:18;-3.20;99.90
12434;DHT22;6281;49.038;8.372;2022-12-18T10:59:57;-3.20;99.90
12434;DHT22;6281;49.038;8.372;2022-12-18T11:02:28;-3.50;99.90
12434;DHT22;6281;49.038;8.372;2022-12-18T11:04:59;-3.30;99.90
12434;DHT22;6281;49.038;8.372;2022-12-18T11:07:48;-3.10;99.90
12434;DHT22;6281;49.038;8.372;2022-12-18T11:10:17;-3.20;99.90
12434;DHT22;6281;49.038;8.372;2022-12-18T11:12:45;-3.20;99.90
12434;DHT22;6281;49.038;8.372;2022-12-18T11:15:16;-2.90;99.90
12434;DHT22;6281;49.038;8.372;2022-12-18T11:17:48;-2.80;99.90
12434;DHT22;6281;49.038;8.372;2022-12-18T11:20:29;-3.00;99.90
12434;DHT22;6281;49.038;8.372;2022-12-18T11:22:58;-2.90;99.90
12434;DHT22;6281;49.038;8.372;2022-12-18T11:25:29;-2.80;99.90
12434;DHT22;6281;49.038;8.372;2022-12-18T11:27:59;-2.70;99.90
12434;DHT22;6281;49.038;8.372;2022-12-18T11:30:28;-2.50;99.90
12434;DHT22;6281;49.038;8.372;2022-12-18T11:33:04;-2.50;99.90
12434;DHT22;6281;49.038;8.372;2022-12-18T11:35:40;-2.60;99.90
12434;DHT22;6281;49.038;8.372;2022-12-18T11:38:17;-2.00;99.90
12434;DHT22;6281;49.038;8.372;2022-12-18T11:40:49;-1.90;99.90
12434;DHT22;6281;49.038;8.372;2022-12-18T11:43:21;-1.80;99.90
12434;DHT22;6281;49.038;8.372;2022-12-18T11:45:54;-1.90;99.90
12434;DHT22;6281;49.038;8.372;2022-12-18T11:48:28;-1.80;99.90
12434;DHT22;6281;49.038;8.372;2022-12-18T11:50:58;-1.70;99.90
12434;DHT22;6281;49.038;8.372;2022-12-18T11:53:27;-1.50;99.90
12434;DHT22;6281;49.038;8.372;2022-12-18T11:56:03;-1.60;99.90
12434;DHT22;6281;49.038;8.372;2022-12-18T11:58:43;-1.90;99.90
12434;DHT22;6281;49.038;8.372;2022-12-18T12:01:18;-2.00;99.90
12434;DHT22;6281;49.038;8.372;2022-12-18T12:06:46;-1.80;99.90
12434;DHT22;6281;49.038;8.372;2022-12-18T12:09:20;-1.50;99.90
12434;DHT22;6281;49.038;8.372;2022-12-18T12:11:57;-1.60;99.90
12434;DHT22;6281;49.038;8.372;2022-12-18T12:14:41;-1.70;99.90
12434;DHT22;6281;49.038;8.372;2022-12-18T12:17:16;-1.70;99.90
12434;DHT22;6281;49.038;8.372;2022-12-18T12:19:51;-1.80;99.90
12434;DHT22;6281;49.038;8.372;2022-12-18T12:22:30;-1.10;99.90
12434;DHT22;6281;49.038;8.372;2022-12-18T12:25:10;-0.70;99.90
12434;DHT22;6281;49.038;8.372;2022-12-18T12:27:47;-1.00;99.90
12434;DHT22;6281;49.038;8.372;2022-12-18T12:30:20;-0.70;99.90
12434;DHT22;6281;49.038;8.372;2022-12-18T12:32:59;-0.30;99.90
12434;DHT22;6281;49.038;8.372;2022-12-18T12:35:49;-0.40;99.90
12434;DHT22;6281;49.038;8.372;2022-12-18T12:38:23;0.40;99.90
12434;DHT22;6281;49.038;8.372;2022-12-18T12:40:54;-0.10;99.90
12434;DHT22;6281;49.038;8.372;2022-12-18T12:43:28;0.00;99.90
12434;DHT22;6281;49.038;8.372;2022-12-18T12:45:59;-0.30;99.90
12434;DHT22;6281;49.038;8.372;2022-12-18T12:48:35;0.00;99.90
12434;DHT22;6281;49.038;8.372;2022-12-18T12:51:12;-0.40;99.90
12434;DHT22;6281;49.038;8.372;2022-12-18T12:53:41;-0.80;99.90
12434;DHT22;6281;49.038;8.372;2022-12-18T12:56:11;-0.50;99.90
12434;DHT22;6281;49.038;8.372;2022-12-18T12:58:44;-1.70;99.90
12434;DHT22;6281;49.038;8.372;2022-12-18T13:01:18;-1.40;99.90
12434;DHT22;6281;49.038;8.372;2022-12-18T13:03:54;-1.20;99.90
12434;DHT22;6281;49.038;8.372;2022-12-18T13:06:35;-1.10;99.90
12434;DHT22;6281;49.038;8.372;2022-12-18T13:12:02;-1.10;99.90
12434;DHT22;6281;49.038;8.372;2022-12-18T13:14:47;-1.60;99.90
12434;DHT22;6281;49.038;8.372;2022-12-18T13:17:28;-1.20;99.90
12434;DHT22;6281;49.038;8.372;2022-12-18T13:20:05;-1.00;99.90
12434;DHT22;6281;49.038;8.372;2022-12-18T13:22:37;-1.20;99.90
12434;DHT22;6281;49.038;8.372;2022-12-18T13:25:29;-1.00;99.90
12434;DHT22;6281;49.038;8.372;2022-12-18T13:28:05;-0.90;99.90
12434;DHT22;6281;49.038;8.372;2022-12-18T13:30:57;-1.00;99.90
12434;DHT22;6281;49.038;8.372;2022-12-18T13:36:15;-0.90;99.90
12434;DHT22;6281;49.038;8.372;2022-12-18T13:38:44;-1.00;99.90
12434;DHT22;6281;49.038;8.372;2022-12-18T13:41:26;-1.00;99.90
12434;DHT22;6281;49.038;8.372;2022-12-18T13:43:54;-1.00;99.90
12434;DHT22;6281;49.038;8.372;2022-12-18T13:46:27;-0.80;99.90
12434;DHT22;6281;49.038;8.372;2022-12-18T13:48:58;-0.90;99.90
12434;DHT22;6281;49.038;8.372;2022-12-18T13:51:26;-1.20;99.90
12434;DHT22;6281;49.038;8.372;2022-12-18T13:53:58;-1.70;99.90
12434;DHT22;6281;49.038;8.372;2022-12-18T13:56:28;-2.00;99.90
12434;DHT22;6281;49.038;8.372;2022-12-18T13:59:18;-1.70;99.90
12434;DHT22;6281;49.038;8.372;2022-12-18T14:01:47;-1.30;99.90
12434;DHT22;6281;49.038;8.372;2022-12-18T14:04:20;-1.80;99.90
12434;DHT22;6281;49.038;8.372;2022-12-18T14:06:48;-1.90;99.90
12434;DHT22;6281;49.038;8.372;2022-12-18T14:09:18;-1.90;99.90
12434;DHT22;6281;49.038;8.372;2022-12-18T14:11:47;-1.90;99.90
12434;DHT22;6281;49.038;8.372;2022-12-18T14:14:16;-2.20;99.90
12434;DHT22;6281;49.038;8.372;2022-12-18T14:16:43;-2.30;99.90
12434;DHT22;6281;49.038;8.372;2022-12-18T14:19:14;-2.50;99.90
12434;DHT22;6281;49.038;8.372;2022-12-18T14:21:45;-2.90;99.90
12434;DHT22;6281;49.038;8.372;2022-12-18T14:24:14;-2.70;99.90
12434;DHT22;6281;49.038;8.372;2022-12-18T14:26:44;-2.80;99.90
12434;DHT22;6281;49.038;8.372;2022-12-18T14:29:25;-2.90;99.90
12434;DHT22;6281;49.038;8.372;2022-12-18T14:32:11;-2.30;99.90
12434;DHT22;6281;49.038;8.372;2022-12-18T14:34:39;-1.90;99.90
12434;DHT22;6281;49.038;8.372;2022-12-18T14:37:10;-2.10;99.90
12434;DHT22;6281;49.038;8.372;2022-12-18T14:39:38;-2.10;99.90
12434;DHT22;6281;49.038;8.372;2022-12-18T14:42:10;-1.80;99.90
12434;DHT22;6281;49.038;8.372;2022-12-18T14:44:37;-2.00;99.90
12434;DHT22;6281;49.038;8.372;2022-12-18T14:47:04;-1.80;99.90
12434;DHT22;6281;49.038;8.372;2022-12-18T14:49:32;-1.80;99.90
12434;DHT22;6281;49.038;8.372;2022-12-18T14:52:03;-1.50;99.90
12434;DHT22;6281;49.038;8.372;2022-12-18T14:54:32;-1.90;99.90
12434;DHT22;6281;49.038;8.372;2022-12-18T14:57:02;-2.30;99.90
12434;DHT22;6281;49.038;8.372;2022-12-18T14:59:31;-2.40;99.90
12434;DHT22;6281;49.038;8.372;2022-12-18T15:02:02;-2.50;99.90
12434;DHT22;6281;49.038;8.372;2022-12-18T15:04:31;-2.60;99.90
12434;DHT22;6281;49.038;8.372;2022-12-18T15:07:09;-2.50;99.90
12434;DHT22;6281;49.038;8.372;2022-12-18T15:09:39;-2.10;99.90
12434;DHT22;6281;49.038;8.372;2022-12-18T15:12:24;-2.30;99.90
12434;DHT22;6281;49.038;8.372;2022-12-18T15:14:54;-2.50;99.90
12434;DHT22;6281;49.038;8.372;2022-12-18T15:17:22;-2.50;99.90
12434;DHT22;6281;49.038;8.372;2022-12-18T15:19:51;-2.60;99.90
12434;DHT22;6281;49.038;8.372;2022-12-18T15:22:24;-2.80;99.90
12434;DHT22;6281;49.038;8.372;2022-12-18T15:24:53;-2.80;99.90
12434;DHT22;6281;49.038;8.372;2022-12-18T15:27:31;-2.90;99.90
12434;DHT22;6281;49.038;8.372;2022-12-18T15:30:19;-3.20;99.90
12434;DHT22;6281;49.038;8.372;2022-12-18T15:32:47;-3.00;99.90
12434;DHT22;6281;49.038;8.372;2022-12-18T15:35:17;-2.90;99.90
12434;DHT22;6281;49.038;8.372;2022-12-18T15:37:45;-3.30;99.90
12434;DHT22;6281;49.038;8.372;2022-12-18T15:40:13;-3.30;99.90
12434;DHT22;6281;49.038;8.372;2022-12-18T15:42:40;-3.30;99.90
12434;DHT22;6281;49.038;8.372;2022-12-18T15:45:26;-3.40;99.90
12434;DHT22;6281;49.038;8.372;2022-12-18T15:47:53;-3.20;99.90
12434;DHT22;6281;49.038;8.372;2022-12-18T15:50:20;-2.90;99.90
12434;DHT22;6281;49.038;8.372;2022-12-18T15:52:49;-2.60;99.90
12434;DHT22;6281;49.038;8.372;2022-12-18T15:55:19;-2.60;99.90
12434;DHT22;6281;49.038;8.372;2022-12-18T15:58:05;-2.60;99.90
12434;DHT22;6281;49.038;8.372;2022-12-18T16:00:35;-2.50;99.90
12434;DHT22;6281;49.038;8.372;2022-12-18T16:03:02;-2.70;99.90
12434;DHT22;6281;49.038;8.372;2022-12-18T16:05:30;-2.50;99.90
12434;DHT22;6281;49.038;8.372;2022-12-18T16:07:57;-2.40;99.90
12434;DHT22;6281;49.038;8.372;2022-12-18T16:10:24;-2.30;99.90
12434;DHT22;6281;49.038;8.372;2022-12-18T16:12:52;-2.90;99.90
12434;DHT22;6281;49.038;8.372;2022-12-18T16:15:19;-2.70;99.90
12434;DHT22;6281;49.038;8.372;2022-12-18T16:17:47;-2.50;99.90
12434;DHT22;6281;49.038;8.372;2022-12-18T16:20:15;-2.30;99.90
12434;DHT22;6281;49.038;8.372;2022-12-18T16:22:43;-2.40;99.90